Time;durP1;ratioP1;P1;durP2;ratioP2;P2;SDS_P1;SDS_P2;PMS_P1;PMS_P2;Temp;Humidity;BMP_temperature;BMP_pressure;BME280_temperature;BME280_humidity;BME280_pressure;Samples;Min_cycle;Max_cycle;Signal;HPM_P1;HPM_P2
2022/12/24 00:01:27;;;;;;;9.63;4.50;;;12.80;99.90;;;;;;5070123;28;20426;-66
2022/12/24 00:03:52;;;;;;;6.80;4.00;;;12.80;99.90;;;;;;5067236;28;20189;-65
2022/12/24 00:06:22;;;;;;;9.93;4.20;;;12.80;99.90;;;;;;5061736;28;20480;-64
2022/12/24 00:08:50;;;;;;;6.00;4.27;;;12.90;99.90;;;;;;5067641;28;20319;-65
2022/12/24 00:11:16;;;;;;;8.37;5.30;;;12.90;99.90;;;;;;5058890;28;20424;-65
2022/12/24 00:13:42;;;;;;;10.23;4.47;;;12.90;99.90;;;;;;5068282;28;20958;-70
2022/12/24 00:16:08;;;;;;;7.30;4.30;;;12.90;99.90;;;;;;5060152;28;20441;-65
2022/12/24 00:18:34;;;;;;;8.93;4.40;;;12.80;99.90;;;;;;5056203;28;20418;-65
2022/12/24 00:21:02;;;;;;;10.60;5.47;;;12.90;99.90;;;;;;5064375;28;20593;-65
2022/12/24 00:23:28;;;;;;;8.73;5.33;;;12.90;99.90;;;;;;5064435;28;20652;-66
2022/12/24 00:25:54;;;;;;;10.67;5.43;;;12.80;99.90;;;;;;5062838;28;20432;-69
2022/12/24 00:28:21;;;;;;;15.60;6.17;;;12.80;99.90;;;;;;5062257;28;20180;-65
2022/12/24 00:30:47;;;;;;;7.00;4.43;;;12.80;99.90;;;;;;5066481;28;20434;-71
2022/12/24 00:33:13;;;;;;;14.10;5.80;;;12.80;99.90;;;;;;5052516;28;20479;-65
2022/12/24 00:35:39;;;;;;;13.87;7.50;;;12.90;99.90;;;;;;5049389;28;20429;-65
2022/12/24 00:38:06;;;;;;;11.00;6.00;;;12.80;99.90;;;;;;5045507;28;20327;-65
2022/12/24 00:40:32;;;;;;;12.70;5.80;;;12.80;99.90;;;;;;5048424;28;20427;-66
2022/12/24 00:42:58;;;;;;;10.13;5.70;;;12.80;99.90;;;;;;5042825;28;20440;-65
2022/12/24 00:45:25;;;;;;;15.47;5.80;;;12.80;99.90;;;;;;5027763;28;20434;-64
2022/12/24 00:47:51;;;;;;;14.17;5.90;;;12.80;99.90;;;;;;5048813;28;20422;-65
2022/12/24 00:50:17;;;;;;;10.20;5.40;;;12.80;99.90;;;;;;5048196;28;20425;-65
2022/12/24 00:52:42;;;;;;;11.03;5.90;;;12.80;99.90;;;;;;5035602;28;20627;-65
2022/12/24 00:55:08;;;;;;;8.60;5.30;;;12.70;99.90;;;;;;5050840;28;20200;-65
2022/12/24 00:57:34;;;;;;;8.80;5.40;;;12.70;99.90;;;;;;5046238;28;20170;-65
2022/12/24 01:00:00;;;;;;;12.77;6.90;;;12.70;99.90;;;;;;5053048;28;20233;-65
2022/12/24 01:02:26;;;;;;;11.80;5.27;;;12.70;99.90;;;;;;5033038;28;20195;-65
2022/12/24 01:05:10;;;;;;;12.77;4.60;;;12.70;99.90;;;;;;5047738;28;20429;-65
2022/12/24 01:07:44;;;;;;;10.90;5.27;;;12.80;99.90;;;;;;5050075;28;20516;-65
2022/12/24 01:10:15;;;;;;;11.23;5.00;;;12.70;99.90;;;;;;5053249;28;20629;-65
2022/12/24 01:12:42;;;;;;;10.40;4.30;;;12.70;99.90;;;;;;5031030;28;20452;-66
2022/12/24 01:15:08;;;;;;;14.60;5.50;;;12.70;99.90;;;;;;5035080;28;20794;-65
2022/12/24 01:17:35;;;;;;;8.03;4.40;;;12.60;99.90;;;;;;5050094;28;20432;-64
2022/12/24 01:20:01;;;;;;;9.50;4.87;;;12.60;99.90;;;;;;5050679;28;20820;-64
2022/12/24 01:22:27;;;;;;;10.73;4.73;;;12.70;99.90;;;;;;5034539;28;20490;-64
2022/12/24 01:24:55;;;;;;;11.67;4.47;;;12.70;99.90;;;;;;5051823;28;20498;-64
2022/12/24 01:27:21;;;;;;;15.03;5.20;;;12.70;99.90;;;;;;5043522;28;20543;-64
2022/12/24 01:29:46;;;;;;;8.47;4.70;;;12.70;99.90;;;;;;5044911;28;20852;-72
2022/12/24 01:32:12;;;;;;;13.37;4.80;;;12.60;99.90;;;;;;5051938;28;20798;-65
2022/12/24 01:34:38;;;;;;;9.07;5.83;;;12.70;99.90;;;;;;5053233;28;20640;-65
2022/12/24 01:37:03;;;;;;;9.57;4.40;;;12.70;99.90;;;;;;5032956;28;20189;-65
2022/12/24 01:39:29;;;;;;;14.90;5.13;;;12.60;99.90;;;;;;5049413;28;20178;-65
2022/12/24 01:44:42;;;;;;;8.67;4.40;;;12.60;99.90;;;;;;5052453;28;20232;-65
2022/12/24 01:47:14;;;;;;;13.83;5.00;;;12.50;99.90;;;;;;5049416;28;20624;-65
2022/12/24 01:49:52;;;;;;;12.23;4.70;;;12.50;99.90;;;;;;5038951;28;20843;-64
2022/12/24 01:52:21;;;;;;;11.13;6.07;;;12.60;99.90;;;;;;5047564;28;20421;-66
2022/12/24 01:54:51;;;;;;;9.10;5.30;;;12.60;99.90;;;;;;5053456;28;20455;-71
2022/12/24 01:57:28;;;;;;;12.87;5.40;;;12.70;99.90;;;;;;5050270;28;20428;-65
2022/12/24 01:59:57;;;;;;;14.00;5.30;;;12.70;99.90;;;;;;5052053;28;20835;-65
2022/12/24 02:02:24;;;;;;;9.13;5.07;;;12.70;99.90;;;;;;5047915;28;20578;-65
2022/12/24 02:05:14;;;;;;;9.50;5.90;;;12.70;99.90;;;;;;5051565;28;20432;-72
2022/12/24 02:07:41;;;;;;;14.90;5.93;;;12.70;99.90;;;;;;5051646;28;20518;-65
2022/12/24 02:10:11;;;;;;;8.80;4.73;;;12.70;99.90;;;;;;5053559;28;20419;-65
2022/12/24 02:12:39;;;;;;;12.10;5.30;;;12.70;99.90;;;;;;5046886;28;20475;-66
2022/12/24 02:15:08;;;;;;;11.80;6.00;;;12.70;99.90;;;;;;5049722;28;20777;-65
2022/12/24 02:17:47;;;;;;;12.30;5.70;;;12.70;99.90;;;;;;5052964;28;20502;-65
2022/12/24 02:20:47;;;;;;;14.47;5.90;;;12.70;99.90;;;;;;5050331;28;20456;-66
2022/12/24 02:23:31;;;;;;;8.43;4.80;;;12.70;99.90;;;;;;5052435;28;20522;-65
2022/12/24 02:26:27;;;;;;;14.97;5.73;;;12.70;99.90;;;;;;5049211;28;20456;-66
2022/12/24 02:29:24;;;;;;;11.60;5.27;;;12.60;99.90;;;;;;5058166;28;20431;-66
2022/12/24 02:32:09;;;;;;;12.23;4.97;;;12.60;99.90;;;;;;5050064;28;20837;-65
2022/12/24 02:34:46;;;;;;;12.80;5.03;;;12.60;99.90;;;;;;5051523;28;20478;-65
2022/12/24 02:37:22;;;;;;;12.73;4.97;;;12.60;99.90;;;;;;5030304;28;21071;-65
2022/12/24 02:40:05;;;;;;;14.10;5.43;;;12.60;99.90;;;;;;5052662;28;20442;-70
2022/12/24 02:42:38;;;;;;;12.13;5.30;;;12.60;99.90;;;;;;5051372;28;20441;-65
2022/12/24 02:45:14;;;;;;;10.53;5.30;;;12.60;99.90;;;;;;5045918;28;20430;-69
2022/12/24 02:47:42;;;;;;;18.23;5.70;;;12.60;99.90;;;;;;5039777;28;20429;-67
2022/12/24 02:50:10;;;;;;;12.67;5.63;;;12.60;99.90;;;;;;5039832;28;21314;-65
2022/12/24 02:52:39;;;;;;;12.93;5.13;;;12.50;99.90;;;;;;5042735;28;20644;-67
2022/12/24 02:55:33;;;;;;;14.23;5.40;;;12.50;99.90;;;;;;5032314;28;20421;-65
2022/12/24 02:58:17;;;;;;;12.80;4.97;;;12.50;99.90;;;;;;5048853;28;20424;-64
2022/12/24 03:01:16;;;;;;;11.27;5.20;;;12.60;99.90;;;;;;5047813;28;20943;-64
2022/12/24 03:03:54;;;;;;;13.03;5.47;;;12.50;99.90;;;;;;5030842;28;20459;-65
2022/12/24 03:06:42;;;;;;;13.13;5.00;;;12.40;99.90;;;;;;5047532;28;20441;-65
2022/12/24 03:09:37;;;;;;;11.40;5.67;;;12.50;99.90;;;;;;5050165;28;20496;-65
2022/12/24 03:12:09;;;;;;;11.23;5.00;;;12.50;99.90;;;;;;5041844;28;20950;-65
2022/12/24 03:14:38;;;;;;;18.17;5.50;;;12.60;99.90;;;;;;5032231;28;20467;-67
2022/12/24 03:17:04;;;;;;;10.67;4.80;;;12.60;99.90;;;;;;5042616;28;20805;-65
2022/12/24 03:19:30;;;;;;;13.70;5.13;;;12.60;99.90;;;;;;5049010;28;20467;-64
2022/12/24 03:21:58;;;;;;;10.00;4.93;;;12.60;99.90;;;;;;5048176;28;20255;-67
2022/12/24 03:24:24;;;;;;;12.20;4.80;;;12.60;99.90;;;;;;5029499;28;20578;-65
2022/12/24 03:26:51;;;;;;;9.00;5.17;;;12.70;99.90;;;;;;5049027;28;20520;-70
2022/12/24 03:29:18;;;;;;;15.67;5.67;;;12.70;99.90;;;;;;5051223;28;20282;-65
2022/12/24 03:31:49;;;;;;;15.80;5.43;;;12.70;99.90;;;;;;5048486;28;20459;-65
2022/12/24 03:34:16;;;;;;;14.23;5.97;;;12.60;99.90;;;;;;5050704;28;20456;-65
2022/12/24 03:36:42;;;;;;;10.33;4.70;;;12.60;99.90;;;;;;5049765;28;20901;-67
2022/12/24 03:39:08;;;;;;;10.90;5.20;;;12.60;99.90;;;;;;5046644;28;20452;-66
2022/12/24 03:41:35;;;;;;;7.67;5.00;;;12.60;99.90;;;;;;5049794;28;20189;-64
2022/12/24 03:44:01;;;;;;;16.17;5.37;;;12.60;99.90;;;;;;5046857;28;20456;-65
2022/12/24 03:46:26;;;;;;;9.80;4.87;;;12.50;99.90;;;;;;5047328;28;20432;-64
2022/12/24 03:48:52;;;;;;;14.60;5.27;;;12.60;99.90;;;;;;5049736;28;20951;-71
2022/12/24 03:51:21;;;;;;;12.63;5.10;;;12.60;99.90;;;;;;5052461;28;20427;-64
2022/12/24 03:53:47;;;;;;;16.13;5.70;;;12.70;99.90;;;;;;5050955;28;20594;-65
2022/12/24 03:56:13;;;;;;;11.67;5.30;;;12.70;99.90;;;;;;5048539;28;20437;-66
2022/12/24 03:58:39;;;;;;;23.27;6.17;;;12.70;99.90;;;;;;5045450;28;20440;-65
2022/12/24 04:01:04;;;;;;;7.60;4.70;;;12.70;99.90;;;;;;5045828;28;20553;-65
2022/12/24 04:03:30;;;;;;;12.03;5.53;;;12.70;99.90;;;;;;5052036;28;20196;-64
2022/12/24 04:06:08;;;;;;;13.50;5.40;;;12.70;99.90;;;;;;5047755;28;20721;-65
2022/12/24 04:08:35;;;;;;;19.03;5.70;;;12.80;99.90;;;;;;5050075;28;20889;-66
2022/12/24 04:11:08;;;;;;;14.70;4.90;;;12.80;99.90;;;;;;5046253;28;20437;-65
2022/12/24 04:13:34;;;;;;;12.67;5.17;;;12.80;99.90;;;;;;5051264;28;20473;-65
2022/12/24 04:16:02;;;;;;;11.03;5.43;;;12.80;99.90;;;;;;5049045;28;20446;-65
2022/12/24 04:18:29;;;;;;;11.53;5.80;;;12.80;99.90;;;;;;5052332;28;20174;-64
2022/12/24 04:20:55;;;;;;;20.10;5.17;;;12.90;99.90;;;;;;5046476;28;20439;-72
2022/12/24 04:23:21;;;;;;;11.43;5.20;;;12.80;99.90;;;;;;5051356;28;20419;-64
2022/12/24 04:25:47;;;;;;;13.53;5.40;;;12.90;99.90;;;;;;5043413;28;20437;-65
2022/12/24 04:28:14;;;;;;;10.87;5.23;;;12.90;99.90;;;;;;5036032;28;20487;-71
2022/12/24 04:30:40;;;;;;;13.13;6.30;;;12.80;99.90;;;;;;5050903;28;20526;-65
2022/12/24 04:33:06;;;;;;;11.73;5.50;;;12.90;99.90;;;;;;5059130;28;20579;-65
2022/12/24 04:35:32;;;;;;;9.80;5.03;;;12.90;99.90;;;;;;5069123;28;20523;-65
2022/12/24 04:37:59;;;;;;;13.13;5.43;;;12.90;99.90;;;;;;5065232;28;20440;-65
2022/12/24 04:40:25;;;;;;;9.10;5.60;;;13.00;99.90;;;;;;5071391;28;20435;-65
2022/12/24 04:42:50;;;;;;;16.03;5.33;;;12.90;99.90;;;;;;5060769;28;20433;-65
2022/12/24 04:45:17;;;;;;;9.57;5.00;;;12.90;99.90;;;;;;5064982;28;20423;-65
2022/12/24 04:47:42;;;;;;;10.73;5.10;;;12.90;99.90;;;;;;5071238;28;20182;-65
2022/12/24 04:50:09;;;;;;;9.80;5.30;;;12.90;99.90;;;;;;5070053;28;20465;-65
2022/12/24 04:52:34;;;;;;;9.70;4.77;;;12.90;99.90;;;;;;5071813;28;20288;-65
2022/12/24 04:55:00;;;;;;;15.63;5.67;;;12.80;99.90;;;;;;5067431;28;20518;-65
2022/12/24 04:57:26;;;;;;;8.33;4.80;;;12.80;99.90;;;;;;5069242;28;20751;-65
2022/12/24 04:59:51;;;;;;;9.07;5.47;;;12.70;99.90;;;;;;5066534;28;20436;-72
2022/12/24 05:02:17;;;;;;;6.80;5.00;;;12.80;99.90;;;;;;5064134;28;20189;-66
2022/12/24 05:04:43;;;;;;;15.97;5.37;;;12.80;99.90;;;;;;5068136;28;20216;-66
2022/12/24 05:07:09;;;;;;;7.43;4.70;;;12.80;99.90;;;;;;5063531;28;20193;-65
2022/12/24 05:09:34;;;;;;;7.73;5.47;;;12.80;99.90;;;;;;5069406;28;20208;-65
2022/12/24 05:12:00;;;;;;;11.60;5.53;;;12.80;99.90;;;;;;5079728;28;20268;-65
2022/12/24 05:14:26;;;;;;;11.33;5.17;;;12.80;99.90;;;;;;5067541;28;20220;-65
2022/12/24 05:16:51;;;;;;;8.97;4.73;;;12.80;99.90;;;;;;5067547;28;20179;-72
2022/12/24 05:19:17;;;;;;;10.50;5.13;;;12.90;99.90;;;;;;5071376;28;20248;-65
2022/12/24 05:21:43;;;;;;;11.40;4.77;;;12.80;99.90;;;;;;5056537;28;20262;-65
2022/12/24 05:26:57;;;;;;;11.83;5.10;;;12.80;99.90;;;;;;5069155;28;20637;-72
2022/12/24 05:29:23;;;;;;;9.00;4.50;;;12.80;99.90;;;;;;5068490;28;20458;-65
2022/12/24 05:31:49;;;;;;;7.50;4.40;;;12.80;99.90;;;;;;5066939;28;20929;-65
2022/12/24 05:34:15;;;;;;;5.80;4.70;;;12.80;99.90;;;;;;5047410;28;21049;-64
2022/12/24 05:36:42;;;;;;;8.87;4.43;;;12.80;99.90;;;;;;5050698;28;20440;-64
2022/12/24 05:39:10;;;;;;;7.87;4.40;;;12.80;99.90;;;;;;5050205;28;20423;-66
2022/12/24 05:41:35;;;;;;;8.93;4.17;;;12.80;99.90;;;;;;5053028;28;20518;-66
2022/12/24 05:44:01;;;;;;;6.83;4.57;;;12.80;99.90;;;;;;5035053;28;20463;-66
2022/12/24 05:46:27;;;;;;;8.60;4.27;;;12.90;99.90;;;;;;5050770;28;20182;-66
2022/12/24 05:48:53;;;;;;;6.90;4.30;;;12.90;99.90;;;;;;5050534;28;20217;-72
2022/12/24 05:51:21;;;;;;;6.50;4.60;;;12.90;99.90;;;;;;5041102;28;20223;-66
2022/12/24 05:53:48;;;;;;;6.23;5.03;;;12.80;99.90;;;;;;5053598;28;20480;-66
2022/12/24 05:56:25;;;;;;;8.67;5.10;;;12.90;99.90;;;;;;5039744;28;20580;-68
2022/12/24 05:58:52;;;;;;;10.70;4.93;;;12.90;99.90;;;;;;5014794;28;20438;-66
2022/12/24 06:01:19;;;;;;;8.47;4.63;;;12.90;99.90;;;;;;5048347;28;20432;-65
2022/12/24 06:03:44;;;;;;;9.73;4.87;;;12.80;99.90;;;;;;5048256;28;20999;-68
2022/12/24 06:06:19;;;;;;;7.30;4.93;;;12.80;99.90;;;;;;5027623;28;20440;-65
2022/12/24 06:08:46;;;;;;;7.97;4.73;;;12.80;99.90;;;;;;5052983;28;20419;-65
2022/12/24 06:11:14;;;;;;;10.30;5.03;;;12.80;99.90;;;;;;5047567;28;20432;-65
2022/12/24 06:13:41;;;;;;;8.23;5.23;;;12.80;99.90;;;;;;5052522;28;20496;-66
2022/12/24 06:16:10;;;;;;;7.77;4.80;;;12.70;99.90;;;;;;5032502;28;20522;-66
2022/12/24 06:18:36;;;;;;;9.80;5.50;;;12.70;99.90;;;;;;5034549;28;20437;-65
2022/12/24 06:21:03;;;;;;;10.27;5.77;;;12.70;99.90;;;;;;5049551;28;20443;-66
2022/12/24 06:23:30;;;;;;;8.73;5.70;;;12.80;99.90;;;;;;5049321;28;20451;-66
2022/12/24 06:25:59;;;;;;;10.17;6.83;;;12.80;99.90;;;;;;5050915;28;20929;-71
2022/12/24 06:28:26;;;;;;;13.07;5.87;;;12.80;99.90;;;;;;5032874;28;20426;-66
2022/12/24 06:30:51;;;;;;;15.50;6.33;;;12.80;99.90;;;;;;5051915;28;20435;-66
2022/12/24 06:33:18;;;;;;;6.47;4.93;;;12.80;99.90;;;;;;5039824;28;20575;-67
2022/12/24 06:35:44;;;;;;;11.50;5.00;;;12.90;99.90;;;;;;5070161;28;20185;-65
2022/12/24 06:38:10;;;;;;;7.10;6.00;;;12.90;99.90;;;;;;5072979;28;20903;-65
2022/12/24 06:40:40;;;;;;;6.67;5.23;;;12.70;99.90;;;;;;5064758;28;20433;-68
2022/12/24 06:43:09;;;;;;;10.80;4.83;;;12.70;99.90;;;;;;5066153;28;20181;-65
2022/12/24 06:45:35;;;;;;;17.20;6.20;;;12.80;99.90;;;;;;5071927;28;20493;-66
2022/12/24 06:48:01;;;;;;;6.47;5.10;;;12.80;99.90;;;;;;5061888;28;20436;-65
2022/12/24 06:50:27;;;;;;;8.23;5.70;;;12.70;99.90;;;;;;5056093;28;20478;-67
2022/12/24 06:52:53;;;;;;;10.67;5.60;;;12.70;99.90;;;;;;5070783;28;20267;-72
2022/12/24 06:55:19;;;;;;;10.37;5.60;;;12.70;99.90;;;;;;5071192;28;21534;-66
2022/12/24 06:57:45;;;;;;;6.60;5.50;;;12.70;99.90;;;;;;5068611;28;20185;-65
2022/12/24 07:00:12;;;;;;;10.33;5.00;;;12.70;99.90;;;;;;5062587;28;20185;-65
2022/12/24 07:02:42;;;;;;;12.47;5.70;;;12.70;99.90;;;;;;5070760;28;20192;-68
2022/12/24 07:05:09;;;;;;;11.87;6.50;;;12.70;99.90;;;;;;5071293;28;20416;-67
2022/12/24 07:07:42;;;;;;;8.90;6.07;;;12.70;99.90;;;;;;5069917;28;20579;-67
2022/12/24 07:10:11;;;;;;;15.57;6.40;;;12.80;99.90;;;;;;5068990;28;20767;-66
2022/12/24 07:12:37;;;;;;;16.33;6.33;;;12.70;99.90;;;;;;5071357;28;20831;-66
2022/12/24 07:15:03;;;;;;;10.27;5.40;;;12.60;99.90;;;;;;5069998;28;20521;-69
2022/12/24 07:17:29;;;;;;;7.57;6.10;;;12.60;99.90;;;;;;5068565;28;20182;-64
2022/12/24 07:19:55;;;;;;;11.03;5.27;;;12.60;99.90;;;;;;5069813;28;20762;-72
2022/12/24 07:22:20;;;;;;;7.23;5.50;;;12.60;99.90;;;;;;5067392;28;20701;-65
2022/12/24 07:24:46;;;;;;;6.53;5.87;;;12.50;99.90;;;;;;5067136;28;20196;-64
2022/12/24 07:27:12;;;;;;;10.27;5.80;;;12.60;99.90;;;;;;5067038;28;20213;-70
2022/12/24 07:29:39;;;;;;;13.50;6.97;;;12.60;99.90;;;;;;5068622;28;20185;-65
2022/12/24 07:32:05;;;;;;;10.80;6.23;;;12.60;99.90;;;;;;5062372;28;20246;-64
2022/12/24 07:34:31;;;;;;;16.00;7.07;;;12.60;99.90;;;;;;5032284;28;20468;-64
2022/12/24 07:36:56;;;;;;;11.47;6.13;;;12.60;99.90;;;;;;5048881;28;20188;-71
2022/12/24 07:39:22;;;;;;;11.33;5.73;;;12.60;99.90;;;;;;5048846;28;20432;-64
2022/12/24 07:41:49;;;;;;;11.57;6.87;;;12.60;99.90;;;;;;5050399;28;20644;-67
2022/12/24 07:44:15;;;;;;;13.40;6.83;;;12.50;99.90;;;;;;5046737;28;20397;-67
2022/12/24 07:46:42;;;;;;;13.00;7.43;;;12.60;99.90;;;;;;5038726;28;20808;-63
2022/12/24 07:49:08;;;;;;;14.30;5.73;;;12.60;99.90;;;;;;5049935;28;20462;-62
2022/12/24 07:51:33;;;;;;;9.87;5.40;;;12.70;99.90;;;;;;5049315;28;20463;-64
2022/12/24 07:53:59;;;;;;;8.57;5.50;;;12.70;99.90;;;;;;5049699;28;20212;-64
2022/12/24 07:56:25;;;;;;;13.30;6.60;;;12.70;99.90;;;;;;5048884;28;20182;-63
2022/12/24 07:58:51;;;;;;;8.10;5.90;;;12.70;99.90;;;;;;5050718;28;20176;-63
2022/12/24 08:01:17;;;;;;;15.37;7.37;;;12.80;99.90;;;;;;5046371;28;20201;-63
2022/12/24 08:03:43;;;;;;;15.23;5.93;;;12.70;99.90;;;;;;5046269;28;20528;-63
2022/12/24 08:06:10;;;;;;;11.60;6.10;;;12.70;99.90;;;;;;5050116;28;20474;-63
2022/12/24 08:08:36;;;;;;;13.77;6.23;;;12.70;99.90;;;;;;5049775;28;20439;-63
2022/12/24 08:11:05;;;;;;;11.23;6.10;;;12.70;99.90;;;;;;5040996;28;20452;-70
2022/12/24 08:13:31;;;;;;;10.77;6.43;;;12.70;99.90;;;;;;5046780;28;20566;-65
2022/12/24 08:15:58;;;;;;;14.60;8.00;;;12.90;99.90;;;;;;5032805;28;21655;-71
2022/12/24 08:18:24;;;;;;;14.67;7.60;;;13.20;99.90;;;;;;5040874;28;20429;-65
2022/12/24 08:20:50;;;;;;;15.10;8.30;;;13.60;99.90;;;;;;5046133;28;20510;-66
2022/12/24 08:23:16;;;;;;;13.40;7.57;;;13.90;99.90;;;;;;5048207;28;20441;-65
2022/12/24 08:25:44;;;;;;;11.87;6.90;;;13.90;99.90;;;;;;5023759;28;20781;-65
2022/12/24 08:28:10;;;;;;;12.53;8.10;;;13.90;99.90;;;;;;5029307;28;20431;-72
2022/12/24 08:30:36;;;;;;;12.37;7.53;;;14.00;99.90;;;;;;5044981;28;20432;-65
2022/12/24 08:33:02;;;;;;;18.90;8.47;;;13.90;99.90;;;;;;5038854;28;20487;-67
2022/12/24 08:35:28;;;;;;;16.90;8.40;;;14.00;99.90;;;;;;5042064;28;20293;-67
2022/12/24 08:37:53;;;;;;;13.23;8.73;;;14.00;99.90;;;;;;5044812;28;20327;-69
2022/12/24 08:40:19;;;;;;;10.47;7.17;;;14.00;99.90;;;;;;5027201;28;20271;-67
2022/12/24 08:42:45;;;;;;;155.20;91.50;;;14.10;99.90;;;;;;5030795;28;20199;-76
2022/12/24 08:45:14;;;;;;;56.13;44.53;;;14.30;99.90;;;;;;5044536;28;20439;-65
2022/12/24 08:47:40;;;;;;;92.20;63.67;;;14.30;99.90;;;;;;5044901;28;20189;-64
2022/12/24 08:50:06;;;;;;;16.93;9.10;;;14.20;99.90;;;;;;5028732;28;20454;-66
2022/12/24 08:52:32;;;;;;;10.67;5.67;;;14.40;99.90;;;;;;5039168;28;20439;-64
2022/12/24 08:54:58;;;;;;;16.83;5.77;;;14.20;99.90;;;;;;5026426;28;20924;-68
2022/12/24 08:57:24;;;;;;;11.33;6.37;;;14.10;99.90;;;;;;5048645;28;20439;-63
2022/12/24 08:59:49;;;;;;;12.80;5.10;;;13.90;99.90;;;;;;5046921;28;20222;-66
2022/12/24 09:02:15;;;;;;;11.33;6.10;;;13.80;99.90;;;;;;5045571;28;20203;-63
2022/12/24 09:04:42;;;;;;;17.20;6.60;;;13.70;99.90;;;;;;5047234;28;20183;-64
2022/12/24 09:07:08;;;;;;;10.87;5.63;;;13.70;99.90;;;;;;5026138;28;20439;-63
2022/12/24 09:09:35;;;;;;;8.77;5.80;;;13.60;99.90;;;;;;5037909;28;20442;-63
2022/12/24 09:12:02;;;;;;;11.20;6.23;;;13.50;99.90;;;;;;5015335;28;20489;-73
2022/12/24 09:14:28;;;;;;;13.43;6.93;;;13.40;99.90;;;;;;5023219;28;20820;-66
2022/12/24 09:16:53;;;;;;;16.30;8.50;;;13.40;99.90;;;;;;5050590;28;20435;-65
2022/12/24 09:19:19;;;;;;;13.30;6.50;;;13.50;99.90;;;;;;5028374;28;20199;-66
2022/12/24 09:21:45;;;;;;;11.83;6.77;;;13.50;99.90;;;;;;5024952;28;20196;-63
2022/12/24 09:24:10;;;;;;;14.57;8.03;;;13.50;99.90;;;;;;5028586;28;20292;-63
2022/12/24 09:26:40;;;;;;;10.20;7.47;;;13.60;99.90;;;;;;5050194;28;20533;-68
2022/12/24 09:29:06;;;;;;;11.23;6.50;;;13.90;99.90;;;;;;5046305;28;20185;-65
2022/12/24 09:31:32;;;;;;;12.40;7.20;;;14.10;99.90;;;;;;5048100;28;20432;-70
2022/12/24 09:33:58;;;;;;;10.53;6.57;;;14.40;99.90;;;;;;5047032;28;20513;-66
2022/12/24 09:36:23;;;;;;;15.30;7.40;;;14.60;99.90;;;;;;5033103;28;20454;-64
2022/12/24 09:38:50;;;;;;;15.07;6.83;;;14.50;99.90;;;;;;5037033;28;20424;-64
2022/12/24 09:42:06;;;;;;;15.13;7.50;;;14.70;99.90;;;;;;5033578;28;20270;-64
2022/12/24 09:44:57;;;;;;;17.70;8.17;;;15.00;99.90;;;;;;4939929;28;20475;-64
2022/12/24 09:47:38;;;;;;;16.93;7.30;;;15.10;99.90;;;;;;4947683;28;20437;-64
2022/12/24 09:50:26;;;;;;;11.83;6.90;;;15.20;99.90;;;;;;4997079;28;20486;-71
2022/12/24 11:35:54;;;;;;;14.93;6.37;;;16.70;99.90;;;;;;5055967;28;20578;-65
2022/12/24 11:38:23;;;;;;;9.87;6.13;;;16.40;99.90;;;;;;5061594;28;21189;-70
2022/12/24 11:41:14;;;;;;;13.60;6.37;;;16.40;99.90;;;;;;5055365;28;20480;-64
2022/12/24 11:43:43;;;;;;;11.53;5.90;;;16.50;99.90;;;;;;5061593;28;20451;-64
2022/12/24 11:46:40;;;;;;;6.00;4.97;;;16.50;99.90;;;;;;5047856;28;20457;-69
2022/12/24 11:49:20;;;;;;;12.60;6.53;;;16.20;99.90;;;;;;5054282;28;22407;-67
2022/12/24 11:52:10;;;;;;;14.20;6.40;;;16.10;99.90;;;;;;5063979;28;20431;-63
2022/12/24 11:54:58;;;;;;;13.20;7.13;;;15.80;99.90;;;;;;5065850;28;20458;-63
2022/12/24 11:57:33;;;;;;;11.27;5.80;;;15.60;99.90;;;;;;5062018;28;20789;-64
2022/12/24 11:59:59;;;;;;;149.00;98.97;;;15.50;99.90;;;;;;5059681;28;20531;-64
2022/12/24 12:02:30;;;;;;;20.77;10.33;;;15.30;99.90;;;;;;5065243;28;20525;-64
2022/12/24 12:05:01;;;;;;;12.70;7.13;;;15.10;99.90;;;;;;5067474;28;20185;-63
2022/12/24 12:07:34;;;;;;;12.93;6.53;;;15.00;99.90;;;;;;5058260;28;20427;-66
2022/12/24 12:10:03;;;;;;;15.50;6.43;;;14.90;99.90;;;;;;5059945;28;20514;-64
2022/12/24 12:12:35;;;;;;;17.77;6.50;;;14.70;99.90;;;;;;5044294;28;20585;-65
2022/12/24 12:15:05;;;;;;;12.50;7.03;;;14.50;99.90;;;;;;5060437;28;20469;-64
2022/12/24 12:17:59;;;;;;;17.20;6.57;;;14.40;99.90;;;;;;5062413;28;20514;-63
2022/12/24 12:20:42;;;;;;;12.30;6.30;;;14.30;99.90;;;;;;5057761;28;21072;-62
2022/12/24 12:23:35;;;;;;;11.90;7.70;;;14.10;99.90;;;;;;5064655;28;20485;-70
2022/12/24 12:26:04;;;;;;;10.60;6.10;;;14.10;99.90;;;;;;5062102;28;20479;-64
2022/12/24 12:28:38;;;;;;;22.63;7.03;;;14.10;99.90;;;;;;5064471;28;20472;-63
2022/12/24 12:31:15;;;;;;;14.20;6.40;;;14.10;99.90;;;;;;5061463;28;20431;-64
2022/12/24 12:33:59;;;;;;;13.93;5.70;;;14.10;99.90;;;;;;5056430;28;20996;-64
2022/12/24 12:36:52;;;;;;;13.13;6.30;;;14.10;99.90;;;;;;5063693;28;20443;-63
2022/12/24 12:39:18;;;;;;;17.30;7.27;;;14.10;99.90;;;;;;5066730;28;20434;-65
2022/12/24 12:42:15;;;;;;;13.13;5.70;;;14.20;99.90;;;;;;5061922;28;20435;-64
2022/12/24 12:45:11;;;;;;;15.93;6.93;;;14.20;99.90;;;;;;5063010;28;20433;-65
2022/12/24 12:48:05;;;;;;;11.70;5.90;;;14.20;99.90;;;;;;5051043;28;20515;-64
2022/12/24 12:50:39;;;;;;;9.20;5.90;;;14.20;99.90;;;;;;5052953;28;20455;-68
2022/12/24 12:53:23;;;;;;;12.77;6.40;;;14.10;99.90;;;;;;5069863;28;20431;-63
2022/12/24 12:56:25;;;;;;;10.00;6.67;;;14.10;99.90;;;;;;5054457;28;20542;-64
2022/12/24 12:59:20;;;;;;;8.87;6.80;;;14.10;99.90;;;;;;5053931;28;20459;-64
2022/12/24 13:01:55;;;;;;;10.90;6.77;;;14.40;99.90;;;;;;5040036;28;20472;-64
2022/12/24 13:04:41;;;;;;;10.03;7.90;;;14.60;99.90;;;;;;5064010;28;20453;-64
2022/12/24 13:07:13;;;;;;;9.00;6.60;;;14.80;99.90;;;;;;5061260;28;20436;-70
2022/12/24 13:09:53;;;;;;;11.33;7.60;;;15.00;99.90;;;;;;5052129;28;20448;-65
2022/12/24 13:12:36;;;;;;;15.30;7.17;;;15.20;99.90;;;;;;5040566;28;20943;-65
2022/12/24 13:15:23;;;;;;;11.47;7.10;;;15.50;99.90;;;;;;5059311;28;20461;-64
2022/12/24 13:17:54;;;;;;;11.23;7.57;;;15.60;99.90;;;;;;5060181;28;20793;-65
2022/12/24 13:20:30;;;;;;;15.17;7.10;;;15.80;99.90;;;;;;5055573;28;20449;-66
2022/12/24 13:22:55;;;;;;;11.67;6.80;;;15.90;99.90;;;;;;5052242;28;20450;-65
2022/12/24 13:25:52;;;;;;;13.20;6.70;;;15.90;99.90;;;;;;5070556;28;20796;-66
2022/12/24 13:28:21;;;;;;;12.03;6.53;;;15.90;99.90;;;;;;5046657;28;20176;-66
2022/12/24 13:31:08;;;;;;;10.40;7.10;;;16.00;99.90;;;;;;5052941;28;20416;-65
2022/12/24 13:33:37;;;;;;;13.90;7.00;;;16.10;99.90;;;;;;5032645;28;20442;-65
2022/12/24 13:36:08;;;;;;;12.40;6.87;;;16.10;99.90;;;;;;5048576;28;20434;-65
2022/12/24 13:38:39;;;;;;;10.17;6.80;;;16.00;99.90;;;;;;5053024;28;20509;-66
2022/12/24 13:41:39;;;;;;;12.03;7.10;;;16.00;99.90;;;;;;5051395;28;20443;-68
2022/12/24 13:44:05;;;;;;;6.97;5.93;;;16.10;99.90;;;;;;5058650;28;20503;-67
2022/12/24 13:46:49;;;;;;;11.53;7.33;;;16.20;99.90;;;;;;5054946;28;20925;-68
2022/12/24 13:49:24;;;;;;;11.67;7.70;;;16.30;99.90;;;;;;5063718;28;20181;-69
2022/12/24 13:51:50;;;;;;;15.20;7.03;;;16.40;99.90;;;;;;5049581;28;20445;-67
2022/12/24 13:54:20;;;;;;;7.80;6.30;;;16.40;99.90;;;;;;5055389;28;20864;-71
2022/12/24 13:56:46;;;;;;;11.70;5.80;;;16.40;99.90;;;;;;5059554;28;20444;-71
2022/12/24 13:59:36;;;;;;;13.37;7.03;;;16.50;99.90;;;;;;5038061;28;20442;-74
2022/12/24 14:02:03;;;;;;;10.43;7.43;;;16.50;99.90;;;;;;5031666;28;20520;-71
2022/12/24 14:04:34;;;;;;;17.40;7.87;;;16.40;99.90;;;;;;5052447;28;21019;-64
2022/12/24 14:07:03;;;;;;;14.90;7.53;;;16.20;99.90;;;;;;5050508;28;20957;-64
2022/12/24 14:09:48;;;;;;;12.73;6.50;;;16.10;99.90;;;;;;5047189;28;21044;-65
2022/12/24 14:12:46;;;;;;;8.00;5.13;;;15.80;99.90;;;;;;5051459;28;20436;-64
2022/12/24 14:15:44;;;;;;;13.07;5.63;;;15.40;99.90;;;;;;5051250;28;20532;-64
2022/12/24 14:18:17;;;;;;;11.87;5.30;;;15.20;99.90;;;;;;5045844;28;20928;-70
2022/12/24 14:20:43;;;;;;;14.60;6.23;;;15.10;99.90;;;;;;5050812;28;20468;-67
2022/12/24 14:23:31;;;;;;;10.33;6.50;;;14.90;99.90;;;;;;5052151;28;20435;-70
2022/12/24 14:25:59;;;;;;;10.23;6.23;;;14.80;99.90;;;;;;5054010;28;20788;-65
2022/12/24 14:28:33;;;;;;;13.50;6.97;;;14.60;99.90;;;;;;5056450;28;20507;-64
2022/12/24 14:31:03;;;;;;;14.33;7.63;;;14.60;99.90;;;;;;5051084;28;20950;-65
2022/12/24 14:33:30;;;;;;;13.23;8.17;;;14.40;99.90;;;;;;5048876;28;20547;-65
2022/12/24 14:35:57;;;;;;;11.33;7.50;;;14.40;99.90;;;;;;5054787;28;20463;-64
2022/12/24 14:38:24;;;;;;;13.07;7.30;;;14.30;99.90;;;;;;5049096;28;20425;-70
2022/12/24 14:41:07;;;;;;;15.43;6.90;;;14.20;99.90;;;;;;5047450;28;20585;-64
2022/12/24 14:43:45;;;;;;;16.70;7.30;;;14.10;99.90;;;;;;5045637;28;20437;-63
2022/12/24 14:46:29;;;;;;;13.57;7.20;;;14.10;99.90;;;;;;5051454;28;20398;-71